To NAV CANADA Home Page Login to a new session Search on AWWS site Disclaimer Vers la page française équivalente Tips FAQ What's new on the site To the Forecasts and Observations / NOTAM section To "File a Flight Plan" website Publications and other links Update of the User's profile FIC Telephone Numbers My Weather Data Folder Route Weather Data Regional Weather Data Local Weather Data To the Forecasts and Observations / NOTAM section
Request Generated 02/17/2019 at 01:20:44 UTC . Weather information available at that time is displayed.

METAR/TAF

If you find any discrepancies between the coded METAR/TAF and the plain language METAR/TAF please use the coded METAR/TAF. LWIS bulletins are not decoded in plain language.

CALGARY/SPRINGBANK/AB    (show WxCam)

SPECI CYBW 170104Z AUTO 35010G15KT 3SM -SN OVC030 M15/M19 A2993 RMK SLP236=
SPECI
LOCATION
CYBW - CALGARY/SPRINGBANK/AB
DATE - TIME
17 FEBRUARY 2019 - 0104 UTC
WIND
350 TRUE @ 10  KNOTS
GUSTS
15 KNOTS
VISIBILITY
3 STAT.  MILES
RUNWAY VISUAL RANGE
WEATHER
LIGHT SNOW
CLOUDINESS
OVERCAST 3000  FT
TEMP / DEWPOINT
-15 C / -19 C
ALTIMETER
29.93 IN HG
RECENT WEATHER
WIND SHEAR

METAR CYBW 170100Z AUTO 34010G15KT 2 1/2SM -SN OVC028 M15/M18 A2993 RMK SLP235=
METAR
LOCATION
CYBW - CALGARY/SPRINGBANK/AB
DATE - TIME
17 FEBRUARY 2019 - 0100 UTC
WIND
340 TRUE @ 10  KNOTS
GUSTS
15 KNOTS
VISIBILITY
2 1/2 STAT.  MILES
RUNWAY VISUAL RANGE
WEATHER
LIGHT SNOW
CLOUDINESS
OVERCAST 2800  FT
TEMP / DEWPOINT
-15 C / -18 C
ALTIMETER
29.93 IN HG
RECENT WEATHER
WIND SHEAR

METAR CYBW 170000Z AUTO 36012KT 2 1/2SM -SN BKN040 OVC050 M15/M18 A2990 RMK SLP 3=
METAR
LOCATION
CYBW - CALGARY/SPRINGBANK/AB
DATE - TIME
17 FEBRUARY 2019 - 0000 UTC
WIND
360 TRUE @ 12  KNOTS
VISIBILITY
2 1/2 STAT.  MILES
RUNWAY VISUAL RANGE
WEATHER
LIGHT SNOW
CLOUDINESS
BROKEN CLOUDS (5/8 - 7/8) 4000  FT
OVERCAST 5000  FT
TEMP / DEWPOINT
-15 C / -18 C
ALTIMETER
29.90 IN HG
RECENT WEATHER
WIND SHEAR

SPECI CYBW 162358Z AUTO 36013KT 2 1/2SM -SN BKN042 OVC050 M15/M18 A2990 RMK SLP 3=
SPECI
LOCATION
CYBW - CALGARY/SPRINGBANK/AB
DATE - TIME
16 FEBRUARY 2019 - 2358 UTC
WIND
360 TRUE @ 13  KNOTS
VISIBILITY
2 1/2 STAT.  MILES
RUNWAY VISUAL RANGE
WEATHER
LIGHT SNOW
CLOUDINESS
BROKEN CLOUDS (5/8 - 7/8) 4200  FT
OVERCAST 5000  FT
TEMP / DEWPOINT
-15 C / -18 C
ALTIMETER
29.90 IN HG
RECENT WEATHER
WIND SHEAR

SPECI CYBW 162323Z AUTO 35011KT 3SM -SN OVC035 M15/M18 A2988 RMK SLP217=
SPECI
LOCATION
CYBW - CALGARY/SPRINGBANK/AB
DATE - TIME
16 FEBRUARY 2019 - 2323 UTC
WIND
350 TRUE @ 11  KNOTS
VISIBILITY
3 STAT.  MILES
RUNWAY VISUAL RANGE
WEATHER
LIGHT SNOW
CLOUDINESS
OVERCAST 3500  FT
TEMP / DEWPOINT
-15 C / -18 C
ALTIMETER
29.88 IN HG
RECENT WEATHER
WIND SHEAR

SPECI CYBW 162315Z AUTO 35012KT 2 1/2SM -SN FEW027 OVC033 M15/M18 A2988 RMK SLP 6=
SPECI
LOCATION
CYBW - CALGARY/SPRINGBANK/AB
DATE - TIME
16 FEBRUARY 2019 - 2315 UTC
WIND
350 TRUE @ 12  KNOTS
VISIBILITY
2 1/2 STAT.  MILES
RUNWAY VISUAL RANGE
WEATHER
LIGHT SNOW
CLOUDINESS
FEW CLOUDS (1/8 - 2/8) 2700  FT
OVERCAST 3300  FT
TEMP / DEWPOINT
-15 C / -18 C
ALTIMETER
29.88 IN HG
RECENT WEATHER
WIND SHEAR

SPECI CYBW 162303Z AUTO 35012KT 3SM -SN OVC035 M15/M19 A2988 RMK SLP215=
SPECI
LOCATION
CYBW - CALGARY/SPRINGBANK/AB
DATE - TIME
16 FEBRUARY 2019 - 2303 UTC
WIND
350 TRUE @ 12  KNOTS
VISIBILITY
3 STAT.  MILES
RUNWAY VISUAL RANGE
WEATHER
LIGHT SNOW
CLOUDINESS
OVERCAST 3500  FT
TEMP / DEWPOINT
-15 C / -19 C
ALTIMETER
29.88 IN HG
RECENT WEATHER
WIND SHEAR

METAR CYBW 162300Z AUTO 36013KT 2 1/2SM -SN FEW027 OVC035 M15/M19 A2987 RMK SLP 4=
METAR
LOCATION
CYBW - CALGARY/SPRINGBANK/AB
DATE - TIME
16 FEBRUARY 2019 - 2300 UTC
WIND
360 TRUE @ 13  KNOTS
VISIBILITY
2 1/2 STAT.  MILES
RUNWAY VISUAL RANGE
WEATHER
LIGHT SNOW
CLOUDINESS
FEW CLOUDS (1/8 - 2/8) 2700  FT
OVERCAST 3500  FT
TEMP / DEWPOINT
-15 C / -19 C
ALTIMETER
29.87 IN HG
RECENT WEATHER
WIND SHEAR

TAF CYBW 162338Z 1700/1705 35012KT 6SM -SN SCT020 OVC040 TEMPO 1700/1705 2SM -SN OVC020 RMK FCST BASED ON AUTO OBS. NXT FCST WILL BE ISSUED AT 171245Z=
TAF
LOCATION

CYBW - CALGARY/SPRINGBANK/AB
VALIDITY [UTC]
16 FEB - 2338 to
17 FEB - 0500
 
TIMES
[UTC]
WIND
[DEGREES TRUE]
VISIBILITY
[STAT. MILES]
WEATHER
CLOUDINESS
[FEET AGL]
 
17 FEB - 0000 to
17 FEB - 0500
350 @ 12 KNOTS
6
LIGHT SNOW
2000 SCATTERED
4000 OVERCAST
TEMPORARY CHANGES
17 FEB - 0000 to
17 FEB - 0500
 
2
LIGHT SNOW
2000 OVERCAST
REMARKS
THE FORECAST IS BASED ON AUTOMATIC OBSERVATIONS - THE NEXT FORECAST WILL BE ISSUED AT 1245 UTC ON DAY 17


Your time UTC time
Weather data provided by Environment Canada and NAV CANADA